sensor_id;sensor_type;location;lat;lon;timestamp;P1;durP1;ratioP1;P2;durP2;ratioP2
48873;SDS011;66155;46.204;5.220;2024-03-25T00:04:23;6.75;;;4.20;;
48873;SDS011;66155;46.204;5.220;2024-03-25T00:09:24;8.63;;;4.43;;
48873;SDS011;66155;46.204;5.220;2024-03-25T00:14:25;10.85;;;4.85;;
48873;SDS011;66155;46.204;5.220;2024-03-25T00:19:25;8.23;;;4.68;;
48873;SDS011;66155;46.204;5.220;2024-03-25T00:24:25;10.73;;;4.17;;
48873;SDS011;66155;46.204;5.220;2024-03-25T00:29:26;9.45;;;4.13;;
48873;SDS011;66155;46.204;5.220;2024-03-25T00:34:27;9.43;;;4.00;;
48873;SDS011;66155;46.204;5.220;2024-03-25T00:39:27;8.07;;;3.88;;
48873;SDS011;66155;46.204;5.220;2024-03-25T00:44:29;5.57;;;3.53;;
48873;SDS011;66155;46.204;5.220;2024-03-25T00:49:29;11.95;;;4.53;;
48873;SDS011;66155;46.204;5.220;2024-03-25T00:54:30;6.63;;;3.92;;
48873;SDS011;66155;46.204;5.220;2024-03-25T00:59:30;9.60;;;4.57;;
48873;SDS011;66155;46.204;5.220;2024-03-25T01:04:30;11.18;;;4.38;;
48873;SDS011;66155;46.204;5.220;2024-03-25T01:09:31;8.32;;;4.30;;
48873;SDS011;66155;46.204;5.220;2024-03-25T01:14:31;11.25;;;4.30;;
48873;SDS011;66155;46.204;5.220;2024-03-25T01:19:32;6.47;;;4.28;;
48873;SDS011;66155;46.204;5.220;2024-03-25T01:24:32;6.40;;;4.23;;
48873;SDS011;66155;46.204;5.220;2024-03-25T01:29:33;9.82;;;5.03;;
48873;SDS011;66155;46.204;5.220;2024-03-25T01:34:33;12.02;;;6.00;;
48873;SDS011;66155;46.204;5.220;2024-03-25T01:39:33;11.27;;;5.60;;
48873;SDS011;66155;46.204;5.220;2024-03-25T01:44:34;8.05;;;4.93;;
48873;SDS011;66155;46.204;5.220;2024-03-25T01:49:34;8.73;;;4.88;;
48873;SDS011;66155;46.204;5.220;2024-03-25T01:54:35;9.60;;;4.70;;
48873;SDS011;66155;46.204;5.220;2024-03-25T01:59:35;6.88;;;4.60;;
48873;SDS011;66155;46.204;5.220;2024-03-25T02:04:36;11.93;;;5.55;;
48873;SDS011;66155;46.204;5.220;2024-03-25T02:09:38;13.43;;;5.85;;
48873;SDS011;66155;46.204;5.220;2024-03-25T02:14:39;9.60;;;6.10;;
48873;SDS011;66155;46.204;5.220;2024-03-25T02:19:40;11.13;;;6.05;;
48873;SDS011;66155;46.204;5.220;2024-03-25T02:24:41;10.68;;;5.38;;
48873;SDS011;66155;46.204;5.220;2024-03-25T02:29:43;9.52;;;5.13;;
48873;SDS011;66155;46.204;5.220;2024-03-25T02:34:45;11.32;;;4.72;;
48873;SDS011;66155;46.204;5.220;2024-03-25T02:39:48;13.77;;;5.60;;
48873;SDS011;66155;46.204;5.220;2024-03-25T02:44:49;14.25;;;6.43;;
48873;SDS011;66155;46.204;5.220;2024-03-25T02:49:49;10.23;;;5.43;;
48873;SDS011;66155;46.204;5.220;2024-03-25T02:54:50;14.43;;;5.50;;
48873;SDS011;66155;46.204;5.220;2024-03-25T02:59:51;10.13;;;4.88;;
48873;SDS011;66155;46.204;5.220;2024-03-25T03:04:51;11.23;;;4.75;;
48873;SDS011;66155;46.204;5.220;2024-03-25T03:09:52;7.65;;;3.85;;
48873;SDS011;66155;46.204;5.220;2024-03-25T03:14:52;7.10;;;4.25;;
48873;SDS011;66155;46.204;5.220;2024-03-25T03:19:52;10.63;;;4.22;;
48873;SDS011;66155;46.204;5.220;2024-03-25T03:24:53;7.57;;;4.50;;
48873;SDS011;66155;46.204;5.220;2024-03-25T03:29:53;6.30;;;3.92;;
48873;SDS011;66155;46.204;5.220;2024-03-25T03:34:54;11.63;;;4.25;;
48873;SDS011;66155;46.204;5.220;2024-03-25T03:39:54;6.80;;;3.85;;
48873;SDS011;66155;46.204;5.220;2024-03-25T03:44:54;10.93;;;4.65;;
48873;SDS011;66155;46.204;5.220;2024-03-25T03:49:55;6.13;;;3.78;;
48873;SDS011;66155;46.204;5.220;2024-03-25T03:54:57;7.90;;;3.70;;
48873;SDS011;66155;46.204;5.220;2024-03-25T03:59:57;6.73;;;3.77;;
48873;SDS011;66155;46.204;5.220;2024-03-25T04:04:58;7.90;;;3.92;;
48873;SDS011;66155;46.204;5.220;2024-03-25T04:09:58;8.60;;;4.43;;
48873;SDS011;66155;46.204;5.220;2024-03-25T04:15:03;10.18;;;5.60;;
48873;SDS011;66155;46.204;5.220;2024-03-25T04:20:04;7.80;;;4.20;;
48873;SDS011;66155;46.204;5.220;2024-03-25T04:25:11;9.13;;;4.47;;
48873;SDS011;66155;46.204;5.220;2024-03-25T04:30:11;9.43;;;4.40;;
48873;SDS011;66155;46.204;5.220;2024-03-25T04:35:12;8.38;;;4.53;;
48873;SDS011;66155;46.204;5.220;2024-03-25T04:40:12;8.45;;;4.07;;
48873;SDS011;66155;46.204;5.220;2024-03-25T04:45:18;8.18;;;3.28;;
48873;SDS011;66155;46.204;5.220;2024-03-25T04:50:19;10.15;;;4.63;;
48873;SDS011;66155;46.204;5.220;2024-03-25T04:55:19;9.95;;;4.30;;
48873;SDS011;66155;46.204;5.220;2024-03-25T05:00:20;9.48;;;4.15;;
48873;SDS011;66155;46.204;5.220;2024-03-25T05:05:20;6.68;;;4.35;;
48873;SDS011;66155;46.204;5.220;2024-03-25T05:10:20;8.23;;;4.45;;
48873;SDS011;66155;46.204;5.220;2024-03-25T05:15:21;8.07;;;4.88;;
48873;SDS011;66155;46.204;5.220;2024-03-25T05:20:21;12.20;;;5.30;;
48873;SDS011;66155;46.204;5.220;2024-03-25T05:25:22;5.75;;;3.95;;
48873;SDS011;66155;46.204;5.220;2024-03-25T05:30:28;8.18;;;4.50;;
48873;SDS011;66155;46.204;5.220;2024-03-25T05:35:29;7.68;;;4.75;;
48873;SDS011;66155;46.204;5.220;2024-03-25T05:40:30;8.88;;;5.20;;
48873;SDS011;66155;46.204;5.220;2024-03-25T05:45:31;8.40;;;4.85;;
48873;SDS011;66155;46.204;5.220;2024-03-25T05:50:31;6.07;;;4.60;;
48873;SDS011;66155;46.204;5.220;2024-03-25T05:55:32;9.63;;;3.63;;
48873;SDS011;66155;46.204;5.220;2024-03-25T06:00:32;5.93;;;3.40;;
48873;SDS011;66155;46.204;5.220;2024-03-25T06:05:32;5.57;;;3.72;;
48873;SDS011;66155;46.204;5.220;2024-03-25T06:10:39;6.28;;;3.47;;
48873;SDS011;66155;46.204;5.220;2024-03-25T06:20:40;4.53;;;3.33;;
48873;SDS011;66155;46.204;5.220;2024-03-25T06:25:40;5.55;;;3.40;;
48873;SDS011;66155;46.204;5.220;2024-03-25T06:30:40;5.88;;;3.17;;
48873;SDS011;66155;46.204;5.220;2024-03-25T06:35:59;6.40;;;3.15;;
48873;SDS011;66155;46.204;5.220;2024-03-25T06:41:00;9.00;;;3.65;;
48873;SDS011;66155;46.204;5.220;2024-03-25T06:46:00;5.43;;;3.10;;
48873;SDS011;66155;46.204;5.220;2024-03-25T06:51:01;4.22;;;3.55;;
48873;SDS011;66155;46.204;5.220;2024-03-25T06:56:04;7.57;;;3.40;;
48873;SDS011;66155;46.204;5.220;2024-03-25T07:01:05;3.38;;;3.03;;
48873;SDS011;66155;46.204;5.220;2024-03-25T07:06:09;4.57;;;3.33;;
48873;SDS011;66155;46.204;5.220;2024-03-25T07:11:09;7.32;;;3.97;;
48873;SDS011;66155;46.204;5.220;2024-03-25T07:16:10;5.32;;;2.88;;
48873;SDS011;66155;46.204;5.220;2024-03-25T07:21:10;3.58;;;2.90;;
48873;SDS011;66155;46.204;5.220;2024-03-25T07:26:11;7.10;;;3.25;;
48873;SDS011;66155;46.204;5.220;2024-03-25T07:31:11;6.85;;;2.80;;
48873;SDS011;66155;46.204;5.220;2024-03-25T07:36:11;8.85;;;3.35;;
48873;SDS011;66155;46.204;5.220;2024-03-25T07:41:12;4.75;;;3.47;;
48873;SDS011;66155;46.204;5.220;2024-03-25T07:46:13;4.72;;;3.30;;
48873;SDS011;66155;46.204;5.220;2024-03-25T07:51:13;5.25;;;2.80;;
48873;SDS011;66155;46.204;5.220;2024-03-25T07:56:14;4.10;;;2.80;;
48873;SDS011;66155;46.204;5.220;2024-03-25T08:01:15;6.93;;;3.20;;
48873;SDS011;66155;46.204;5.220;2024-03-25T08:06:15;6.18;;;2.80;;
48873;SDS011;66155;46.204;5.220;2024-03-25T08:11:16;4.47;;;2.78;;
48873;SDS011;66155;46.204;5.220;2024-03-25T08:16:16;4.07;;;2.53;;
48873;SDS011;66155;46.204;5.220;2024-03-25T08:21:17;3.25;;;2.80;;
48873;SDS011;66155;46.204;5.220;2024-03-25T08:26:17;3.22;;;2.88;;
48873;SDS011;66155;46.204;5.220;2024-03-25T08:31:18;5.20;;;3.30;;
48873;SDS011;66155;46.204;5.220;2024-03-25T08:36:18;3.97;;;2.90;;
48873;SDS011;66155;46.204;5.220;2024-03-25T08:41:19;3.70;;;3.10;;
48873;SDS011;66155;46.204;5.220;2024-03-25T08:46:19;5.18;;;3.20;;
48873;SDS011;66155;46.204;5.220;2024-03-25T08:51:19;7.78;;;5.65;;
48873;SDS011;66155;46.204;5.220;2024-03-25T08:56:20;3.10;;;2.40;;
48873;SDS011;66155;46.204;5.220;2024-03-25T09:01:21;4.32;;;2.60;;
48873;SDS011;66155;46.204;5.220;2024-03-25T09:06:21;4.10;;;2.70;;
48873;SDS011;66155;46.204;5.220;2024-03-25T09:11:22;4.57;;;2.85;;
48873;SDS011;66155;46.204;5.220;2024-03-25T09:16:25;6.50;;;2.50;;
48873;SDS011;66155;46.204;5.220;2024-03-25T09:21:25;5.05;;;2.60;;
48873;SDS011;66155;46.204;5.220;2024-03-25T09:26:27;4.97;;;2.65;;
48873;SDS011;66155;46.204;5.220;2024-03-25T09:31:27;4.72;;;2.95;;
48873;SDS011;66155;46.204;5.220;2024-03-25T09:36:28;3.22;;;2.90;;
48873;SDS011;66155;46.204;5.220;2024-03-25T09:41:28;3.08;;;2.35;;
48873;SDS011;66155;46.204;5.220;2024-03-25T09:46:34;3.27;;;2.57;;
48873;SDS011;66155;46.204;5.220;2024-03-25T09:51:36;4.00;;;2.60;;
48873;SDS011;66155;46.204;5.220;2024-03-25T09:56:37;3.10;;;2.53;;
48873;SDS011;66155;46.204;5.220;2024-03-25T10:01:39;4.03;;;3.72;;
48873;SDS011;66155;46.204;5.220;2024-03-25T10:06:39;3.40;;;2.60;;
48873;SDS011;66155;46.204;5.220;2024-03-25T10:11:40;3.65;;;2.50;;
48873;SDS011;66155;46.204;5.220;2024-03-25T10:16:40;5.23;;;2.77;;
48873;SDS011;66155;46.204;5.220;2024-03-25T10:21:41;4.30;;;3.35;;
48873;SDS011;66155;46.204;5.220;2024-03-25T10:26:42;3.90;;;2.90;;
48873;SDS011;66155;46.204;5.220;2024-03-25T10:31:43;3.70;;;3.30;;
48873;SDS011;66155;46.204;5.220;2024-03-25T10:36:43;4.47;;;2.88;;
48873;SDS011;66155;46.204;5.220;2024-03-25T10:41:44;3.47;;;2.65;;
48873;SDS011;66155;46.204;5.220;2024-03-25T10:46:49;5.13;;;2.60;;
48873;SDS011;66155;46.204;5.220;2024-03-25T10:51:53;3.95;;;3.70;;
48873;SDS011;66155;46.204;5.220;2024-03-25T10:56:54;3.70;;;2.60;;
48873;SDS011;66155;46.204;5.220;2024-03-25T11:01:56;3.60;;;2.78;;
48873;SDS011;66155;46.204;5.220;2024-03-25T11:07:09;3.97;;;2.70;;
48873;SDS011;66155;46.204;5.220;2024-03-25T11:12:14;2.92;;;2.63;;
48873;SDS011;66155;46.204;5.220;2024-03-25T11:17:15;4.53;;;2.70;;
48873;SDS011;66155;46.204;5.220;2024-03-25T11:22:16;3.50;;;2.83;;
48873;SDS011;66155;46.204;5.220;2024-03-25T11:27:20;4.13;;;2.60;;
48873;SDS011;66155;46.204;5.220;2024-03-25T11:32:22;3.87;;;2.47;;
48873;SDS011;66155;46.204;5.220;2024-03-25T11:37:22;3.47;;;2.50;;
48873;SDS011;66155;46.204;5.220;2024-03-25T11:42:23;2.60;;;2.40;;
48873;SDS011;66155;46.204;5.220;2024-03-25T11:47:24;3.72;;;2.50;;
48873;SDS011;66155;46.204;5.220;2024-03-25T11:52:29;2.75;;;2.50;;
48873;SDS011;66155;46.204;5.220;2024-03-25T11:57:30;2.50;;;2.30;;
48873;SDS011;66155;46.204;5.220;2024-03-25T12:02:31;2.67;;;2.47;;
48873;SDS011;66155;46.204;5.220;2024-03-25T12:07:32;3.78;;;2.53;;
48873;SDS011;66155;46.204;5.220;2024-03-25T12:12:33;2.45;;;2.25;;
48873;SDS011;66155;46.204;5.220;2024-03-25T12:17:34;3.58;;;2.50;;
48873;SDS011;66155;46.204;5.220;2024-03-25T12:22:35;3.00;;;2.70;;
48873;SDS011;66155;46.204;5.220;2024-03-25T12:27:36;2.63;;;2.40;;
48873;SDS011;66155;46.204;5.220;2024-03-25T12:32:38;2.67;;;2.50;;
48873;SDS011;66155;46.204;5.220;2024-03-25T12:37:44;2.80;;;2.30;;
48873;SDS011;66155;46.204;5.220;2024-03-25T12:42:46;4.97;;;2.90;;
48873;SDS011;66155;46.204;5.220;2024-03-25T12:47:52;4.10;;;2.72;;
48873;SDS011;66155;46.204;5.220;2024-03-25T12:52:53;3.88;;;2.75;;
48873;SDS011;66155;46.204;5.220;2024-03-25T12:57:53;3.37;;;2.80;;
48873;SDS011;66155;46.204;5.220;2024-03-25T13:02:53;5.03;;;2.80;;
48873;SDS011;66155;46.204;5.220;2024-03-25T13:07:54;8.68;;;3.35;;
48873;SDS011;66155;46.204;5.220;2024-03-25T13:12:55;6.97;;;3.10;;
48873;SDS011;66155;46.204;5.220;2024-03-25T13:17:56;9.73;;;3.70;;
48873;SDS011;66155;46.204;5.220;2024-03-25T13:22:57;2.50;;;2.30;;
48873;SDS011;66155;46.204;5.220;2024-03-25T13:27:59;5.15;;;4.05;;
48873;SDS011;66155;46.204;5.220;2024-03-25T13:33:00;4.20;;;3.00;;
48873;SDS011;66155;46.204;5.220;2024-03-25T13:38:00;4.32;;;3.05;;
48873;SDS011;66155;46.204;5.220;2024-03-25T13:43:01;2.72;;;2.42;;
48873;SDS011;66155;46.204;5.220;2024-03-25T13:48:01;3.63;;;3.00;;
48873;SDS011;66155;46.204;5.220;2024-03-25T13:53:02;3.45;;;2.92;;
48873;SDS011;66155;46.204;5.220;2024-03-25T13:58:02;3.38;;;3.03;;
48873;SDS011;66155;46.204;5.220;2024-03-25T14:03:03;3.53;;;3.22;;
48873;SDS011;66155;46.204;5.220;2024-03-25T14:08:04;6.07;;;3.92;;
48873;SDS011;66155;46.204;5.220;2024-03-25T14:13:04;4.30;;;3.50;;
48873;SDS011;66155;46.204;5.220;2024-03-25T14:18:05;6.82;;;4.28;;
48873;SDS011;66155;46.204;5.220;2024-03-25T14:23:08;3.47;;;3.17;;
48873;SDS011;66155;46.204;5.220;2024-03-25T14:28:08;4.10;;;3.40;;
48873;SDS011;66155;46.204;5.220;2024-03-25T14:33:09;7.80;;;5.65;;
48873;SDS011;66155;46.204;5.220;2024-03-25T14:38:09;3.90;;;3.13;;
48873;SDS011;66155;46.204;5.220;2024-03-25T14:43:09;4.30;;;3.40;;
48873;SDS011;66155;46.204;5.220;2024-03-25T14:48:10;3.20;;;2.90;;
48873;SDS011;66155;46.204;5.220;2024-03-25T14:53:10;4.65;;;3.20;;
48873;SDS011;66155;46.204;5.220;2024-03-25T14:58:10;4.03;;;2.87;;
48873;SDS011;66155;46.204;5.220;2024-03-25T15:03:11;3.42;;;3.10;;
48873;SDS011;66155;46.204;5.220;2024-03-25T15:08:11;2.97;;;2.77;;
48873;SDS011;66155;46.204;5.220;2024-03-25T15:13:12;3.60;;;3.25;;
48873;SDS011;66155;46.204;5.220;2024-03-25T15:18:13;3.40;;;3.20;;
48873;SDS011;66155;46.204;5.220;2024-03-25T15:23:13;3.08;;;2.83;;
48873;SDS011;66155;46.204;5.220;2024-03-25T15:28:13;4.40;;;3.63;;
48873;SDS011;66155;46.204;5.220;2024-03-25T15:33:14;3.03;;;2.80;;
48873;SDS011;66155;46.204;5.220;2024-03-25T15:38:15;5.25;;;3.60;;
48873;SDS011;66155;46.204;5.220;2024-03-25T15:43:15;3.00;;;2.80;;
48873;SDS011;66155;46.204;5.220;2024-03-25T15:48:16;4.00;;;3.20;;
48873;SDS011;66155;46.204;5.220;2024-03-25T15:53:16;3.72;;;3.15;;
48873;SDS011;66155;46.204;5.220;2024-03-25T15:58:17;3.40;;;3.20;;
48873;SDS011;66155;46.204;5.220;2024-03-25T16:03:17;3.75;;;3.45;;
48873;SDS011;66155;46.204;5.220;2024-03-25T16:08:18;5.15;;;3.20;;
48873;SDS011;66155;46.204;5.220;2024-03-25T16:13:18;2.60;;;2.40;;
48873;SDS011;66155;46.204;5.220;2024-03-25T16:18:18;4.20;;;3.70;;
48873;SDS011;66155;46.204;5.220;2024-03-25T16:23:19;3.50;;;3.30;;
48873;SDS011;66155;46.204;5.220;2024-03-25T16:28:19;4.95;;;4.55;;
48873;SDS011;66155;46.204;5.220;2024-03-25T16:33:19;3.40;;;3.10;;
48873;SDS011;66155;46.204;5.220;2024-03-25T16:38:20;3.92;;;2.85;;
48873;SDS011;66155;46.204;5.220;2024-03-25T16:43:21;3.50;;;3.03;;
48873;SDS011;66155;46.204;5.220;2024-03-25T16:48:21;3.58;;;2.90;;
48873;SDS011;66155;46.204;5.220;2024-03-25T16:53:22;4.32;;;3.25;;
48873;SDS011;66155;46.204;5.220;2024-03-25T16:58:22;3.40;;;3.10;;
48873;SDS011;66155;46.204;5.220;2024-03-25T17:03:23;3.00;;;2.70;;
48873;SDS011;66155;46.204;5.220;2024-03-25T17:08:23;4.43;;;3.08;;
48873;SDS011;66155;46.204;5.220;2024-03-25T17:13:25;2.72;;;2.53;;
48873;SDS011;66155;46.204;5.220;2024-03-25T17:18:27;3.33;;;2.63;;
48873;SDS011;66155;46.204;5.220;2024-03-25T17:23:27;3.38;;;2.60;;
48873;SDS011;66155;46.204;5.220;2024-03-25T17:28:28;3.50;;;2.70;;
48873;SDS011;66155;46.204;5.220;2024-03-25T17:33:32;3.10;;;2.72;;
48873;SDS011;66155;46.204;5.220;2024-03-25T17:38:33;3.78;;;3.03;;
48873;SDS011;66155;46.204;5.220;2024-03-25T17:43:36;3.05;;;2.63;;
48873;SDS011;66155;46.204;5.220;2024-03-25T17:48:37;4.90;;;3.03;;
48873;SDS011;66155;46.204;5.220;2024-03-25T17:53:37;4.40;;;2.90;;
48873;SDS011;66155;46.204;5.220;2024-03-25T17:58:38;3.57;;;2.90;;
48873;SDS011;66155;46.204;5.220;2024-03-25T18:03:38;3.33;;;2.87;;
48873;SDS011;66155;46.204;5.220;2024-03-25T18:08:38;3.15;;;2.72;;
48873;SDS011;66155;46.204;5.220;2024-03-25T18:13:39;2.93;;;2.73;;
48873;SDS011;66155;46.204;5.220;2024-03-25T18:18:39;5.00;;;3.20;;
48873;SDS011;66155;46.204;5.220;2024-03-25T18:23:40;5.30;;;2.97;;
48873;SDS011;66155;46.204;5.220;2024-03-25T18:28:41;3.25;;;2.50;;
48873;SDS011;66155;46.204;5.220;2024-03-25T18:33:43;3.72;;;3.35;;
48873;SDS011;66155;46.204;5.220;2024-03-25T18:38:43;3.78;;;3.20;;
48873;SDS011;66155;46.204;5.220;2024-03-25T18:43:44;3.33;;;2.85;;
48873;SDS011;66155;46.204;5.220;2024-03-25T18:48:44;3.90;;;2.80;;
48873;SDS011;66155;46.204;5.220;2024-03-25T18:53:44;3.83;;;3.50;;
48873;SDS011;66155;46.204;5.220;2024-03-25T18:58:45;6.63;;;3.30;;
48873;SDS011;66155;46.204;5.220;2024-03-25T19:03:45;5.43;;;2.83;;
48873;SDS011;66155;46.204;5.220;2024-03-25T19:08:46;4.07;;;3.08;;
48873;SDS011;66155;46.204;5.220;2024-03-25T19:13:46;3.43;;;2.50;;
48873;SDS011;66155;46.204;5.220;2024-03-25T19:18:47;3.42;;;3.08;;
48873;SDS011;66155;46.204;5.220;2024-03-25T19:23:47;4.80;;;3.10;;
48873;SDS011;66155;46.204;5.220;2024-03-25T19:28:47;3.20;;;2.90;;
48873;SDS011;66155;46.204;5.220;2024-03-25T19:33:48;4.15;;;3.25;;
48873;SDS011;66155;46.204;5.220;2024-03-25T19:38:48;3.57;;;3.00;;
48873;SDS011;66155;46.204;5.220;2024-03-25T19:43:50;5.57;;;2.88;;
48873;SDS011;66155;46.204;5.220;2024-03-25T19:48:51;7.32;;;3.08;;
48873;SDS011;66155;46.204;5.220;2024-03-25T19:53:51;3.20;;;2.60;;
48873;SDS011;66155;46.204;5.220;2024-03-25T19:58:51;5.63;;;3.13;;
48873;SDS011;66155;46.204;5.220;2024-03-25T20:03:52;5.00;;;2.80;;
48873;SDS011;66155;46.204;5.220;2024-03-25T20:08:54;5.43;;;3.00;;
48873;SDS011;66155;46.204;5.220;2024-03-25T20:13:55;3.35;;;2.80;;
48873;SDS011;66155;46.204;5.220;2024-03-25T20:18:55;4.82;;;2.67;;
48873;SDS011;66155;46.204;5.220;2024-03-25T20:23:56;5.43;;;2.92;;
48873;SDS011;66155;46.204;5.220;2024-03-25T20:28:56;7.20;;;2.92;;
48873;SDS011;66155;46.204;5.220;2024-03-25T20:33:57;7.47;;;2.50;;
48873;SDS011;66155;46.204;5.220;2024-03-25T20:38:57;4.18;;;2.50;;
48873;SDS011;66155;46.204;5.220;2024-03-25T20:43:58;3.80;;;2.85;;
48873;SDS011;66155;46.204;5.220;2024-03-25T20:48:58;9.13;;;3.08;;
48873;SDS011;66155;46.204;5.220;2024-03-25T20:53:59;6.82;;;2.65;;
48873;SDS011;66155;46.204;5.220;2024-03-25T20:59:00;6.15;;;2.80;;
48873;SDS011;66155;46.204;5.220;2024-03-25T21:04:00;4.43;;;2.20;;
48873;SDS011;66155;46.204;5.220;2024-03-25T21:09:01;4.07;;;2.10;;
48873;SDS011;66155;46.204;5.220;2024-03-25T21:14:01;7.18;;;2.90;;
48873;SDS011;66155;46.204;5.220;2024-03-25T21:19:02;7.95;;;3.30;;
48873;SDS011;66155;46.204;5.220;2024-03-25T21:24:02;5.70;;;2.70;;
48873;SDS011;66155;46.204;5.220;2024-03-25T21:29:02;7.03;;;3.28;;
48873;SDS011;66155;46.204;5.220;2024-03-25T21:34:03;3.57;;;2.17;;
48873;SDS011;66155;46.204;5.220;2024-03-25T21:39:03;7.75;;;2.97;;
48873;SDS011;66155;46.204;5.220;2024-03-25T21:44:04;4.28;;;2.78;;
48873;SDS011;66155;46.204;5.220;2024-03-25T21:49:04;8.45;;;2.90;;
48873;SDS011;66155;46.204;5.220;2024-03-25T21:54:05;4.47;;;2.80;;
48873;SDS011;66155;46.204;5.220;2024-03-25T21:59:05;8.17;;;3.17;;
48873;SDS011;66155;46.204;5.220;2024-03-25T22:04:05;5.97;;;2.70;;
48873;SDS011;66155;46.204;5.220;2024-03-25T22:09:06;5.80;;;3.15;;
48873;SDS011;66155;46.204;5.220;2024-03-25T22:14:08;4.32;;;2.65;;
48873;SDS011;66155;46.204;5.220;2024-03-25T22:19:08;6.37;;;2.87;;
48873;SDS011;66155;46.204;5.220;2024-03-25T22:24:08;5.63;;;2.90;;
48873;SDS011;66155;46.204;5.220;2024-03-25T22:29:09;6.60;;;3.07;;
48873;SDS011;66155;46.204;5.220;2024-03-25T22:34:10;6.40;;;2.83;;
48873;SDS011;66155;46.204;5.220;2024-03-25T22:39:10;7.27;;;3.20;;
48873;SDS011;66155;46.204;5.220;2024-03-25T22:44:10;8.27;;;2.97;;
48873;SDS011;66155;46.204;5.220;2024-03-25T22:49:11;6.03;;;2.80;;
48873;SDS011;66155;46.204;5.220;2024-03-25T22:54:11;5.85;;;3.03;;
48873;SDS011;66155;46.204;5.220;2024-03-25T22:59:12;6.93;;;2.70;;
48873;SDS011;66155;46.204;5.220;2024-03-25T23:04:12;6.60;;;2.60;;
48873;SDS011;66155;46.204;5.220;2024-03-25T23:09:12;6.80;;;2.97;;
48873;SDS011;66155;46.204;5.220;2024-03-25T23:14:13;7.30;;;2.83;;
48873;SDS011;66155;46.204;5.220;2024-03-25T23:19:13;9.00;;;2.90;;
48873;SDS011;66155;46.204;5.220;2024-03-25T23:24:14;5.13;;;2.83;;
48873;SDS011;66155;46.204;5.220;2024-03-25T23:29:14;6.83;;;2.60;;
48873;SDS011;66155;46.204;5.220;2024-03-25T23:34:14;6.43;;;3.07;;
48873;SDS011;66155;46.204;5.220;2024-03-25T23:39:15;3.10;;;2.60;;
48873;SDS011;66155;46.204;5.220;2024-03-25T23:44:15;4.68;;;2.78;;
48873;SDS011;66155;46.204;5.220;2024-03-25T23:49:18;5.05;;;2.83;;
48873;SDS011;66155;46.204;5.220;2024-03-25T23:54:18;10.05;;;2.72;;
48873;SDS011;66155;46.204;5.220;2024-03-25T23:59:18;9.30;;;3.35;;
